Time;durP1;ratioP1;P1;durP2;ratioP2;P2;SDS_P1;SDS_P2;PMS_P1;PMS_P2;Temp;Humidity;BMP_temperature;BMP_pressure;BME280_temperature;BME280_humidity;BME280_pressure;Samples;Min_cycle;Max_cycle;Signal;HPM_P1;HPM_P2
2021/12/18 00:00:59;;;;;;;61.70;26.88;;;;;;;-0.40;100.00;102207.28;4956999;28;20040;-78
2021/12/18 00:03:27;;;;;;;55.75;26.70;;;;;;;-0.49;100.00;102200.22;4956895;28;20052;-78
2021/12/18 00:05:55;;;;;;;53.25;28.52;;;;;;;-0.28;100.00;102210.50;4956911;28;20057;-78
2021/12/18 00:08:24;;;;;;;64.88;28.10;;;;;;;-0.32;100.00;102215.38;4957007;28;20051;-78
2021/12/18 00:10:53;;;;;;;66.70;27.33;;;;;;;-0.58;100.00;102210.94;4956861;28;20422;-78
2021/12/18 00:13:23;;;;;;;53.80;27.17;;;;;;;-0.64;100.00;102205.41;4956902;28;20505;-78
2021/12/18 00:15:51;;;;;;;47.50;27.25;;;;;;;-0.67;100.00;102203.88;4956715;28;20055;-78
2021/12/18 00:18:19;;;;;;;51.33;26.70;;;;;;;-0.63;100.00;102205.22;4955502;28;20050;-78
2021/12/18 00:20:47;;;;;;;47.83;27.65;;;;;;;-0.58;100.00;102200.19;4956612;28;20047;-78
2021/12/18 00:23:17;;;;;;;52.08;26.05;;;;;;;-0.58;100.00;102202.06;4956671;28;20662;-78
2021/12/18 00:25:45;;;;;;;52.08;28.13;;;;;;;-0.58;100.00;102205.56;4955232;28;20391;-78
2021/12/18 00:28:13;;;;;;;61.38;29.15;;;;;;;-0.47;100.00;102201.75;4956660;28;20812;-78
2021/12/18 00:30:41;;;;;;;67.53;29.60;;;;;;;-0.57;100.00;102201.91;4956540;28;20043;-78
2021/12/18 00:33:09;;;;;;;57.42;28.45;;;;;;;-0.56;100.00;102205.41;4956470;28;20047;-78
2021/12/18 00:35:38;;;;;;;55.05;29.13;;;;;;;-0.47;100.00;102212.50;4956383;28;20059;-78
2021/12/18 00:38:08;;;;;;;58.25;30.48;;;;;;;-0.15;100.00;102213.53;4956253;28;20862;-78
2021/12/18 00:41:10;;;;;;;65.43;31.10;;;;;;;-0.04;100.00;102201.56;4956334;28;20062;-78
2021/12/18 00:44:00;;;;;;;57.28;29.55;;;;;;;-0.12;100.00;102192.66;4955579;28;20043;-78
2021/12/18 00:46:27;;;;;;;69.45;33.10;;;;;;;-0.09;100.00;102189.66;4955847;28;20066;-78
2021/12/18 00:48:55;;;;;;;54.97;29.70;;;;;;;-0.39;100.00;102189.31;4954950;28;20052;-78
2021/12/18 00:51:23;;;;;;;77.47;30.80;;;;;;;-0.32;100.00;102188.47;4956235;28;20066;-78
2021/12/18 00:53:51;;;;;;;60.47;29.88;;;;;;;-0.37;100.00;102188.13;4954713;28;20123;-78
2021/12/18 00:56:21;;;;;;;54.78;26.77;;;;;;;-0.49;100.00;102184.91;4956213;28;20047;-78
2021/12/18 00:58:51;;;;;;;64.38;28.05;;;;;;;-0.53;100.00;102182.72;4955799;28;20063;-78
2021/12/18 01:01:21;;;;;;;59.72;28.52;;;;;;;-0.55;100.00;102175.66;4955889;28;20088;-78
2021/12/18 01:03:50;;;;;;;59.60;28.13;;;;;;;-0.59;100.00;102179.69;4955926;28;20494;-78
2021/12/18 01:06:22;;;;;;;69.97;30.45;;;;;;;-0.45;100.00;102180.03;4955824;28;20051;-78
2021/12/18 01:08:53;;;;;;;59.63;27.35;;;;;;;-0.55;100.00;102181.03;4955666;28;20047;-78
2021/12/18 01:11:33;;;;;;;62.45;30.30;;;;;;;-0.43;100.00;102180.72;4955932;28;20406;-78
2021/12/18 01:16:54;;;;;;;59.83;26.08;;;;;;;-0.58;100.00;102159.84;4955811;28;20058;-78
2021/12/18 01:24:56;;;;;;;59.28;28.02;;;;;;;-0.47;100.00;102171.28;4943866;28;20054;-78
2021/12/18 01:27:24;;;;;;;46.50;25.30;;;;;;;-0.71;100.00;102179.19;4955400;28;20494;-77
2021/12/18 01:29:52;;;;;;;46.67;23.20;;;;;;;-0.53;100.00;102178.19;4955772;28;20047;-78
2021/12/18 01:32:20;;;;;;;46.13;27.58;;;;;;;-0.46;100.00;102186.44;4955401;28;20055;-78
2021/12/18 01:34:48;;;;;;;38.65;24.52;;;;;;;-0.77;100.00;102181.66;4955414;28;20043;-78
2021/12/18 01:37:16;;;;;;;41.10;22.98;;;;;;;-0.93;100.00;102183.28;4953979;28;20502;-78
2021/12/18 01:39:44;;;;;;;36.80;22.13;;;;;;;-1.09;100.00;102190.31;4955033;28;20482;-78
2021/12/18 01:52:43;;;;;;;43.13;23.55;;;;;;;-1.44;100.00;102194.00;4955126;28;20050;-77
2021/12/18 01:55:11;;;;;;;36.97;22.05;;;;;;;-1.49;100.00;102197.19;4954869;28;20050;-78
2021/12/18 01:57:39;;;;;;;42.22;23.45;;;;;;;-1.47;100.00;102203.22;4955036;28;20047;-77
2021/12/18 02:00:27;;;;;;;36.97;22.60;;;;;;;-1.39;100.00;102208.66;4954782;28;20047;-77
2021/12/18 02:02:56;;;;;;;36.25;21.77;;;;;;;-1.42;100.00;102208.13;4943674;28;20039;-78
2021/12/18 02:05:24;;;;;;;36.03;22.08;;;;;;;-1.20;100.00;102212.09;4922105;28;20055;-78
2021/12/18 02:07:53;;;;;;;37.33;23.48;;;;;;;-1.16;100.00;102204.56;4954703;28;20051;-78
2021/12/18 02:10:25;;;;;;;39.90;23.27;;;;;;;-1.23;100.00;102220.47;4954672;28;20051;-77
2021/12/18 02:21:10;;;;;;;43.38;24.02;;;;;;;-1.10;100.00;102245.06;4954412;28;20058;-78
2021/12/18 02:23:39;;;;;;;44.88;25.42;;;;;;;-0.99;100.00;102252.00;4953346;28;20070;-78
2021/12/18 02:26:07;;;;;;;41.60;23.45;;;;;;;-1.07;100.00;102249.28;4954355;28;20039;-77
2021/12/18 02:28:35;;;;;;;45.70;25.33;;;;;;;-1.11;100.00;102256.78;4954362;28;20039;-78
2021/12/18 02:31:04;;;;;;;43.53;24.50;;;;;;;-1.17;100.00;102254.75;4954397;28;20047;-78
2021/12/18 02:33:32;;;;;;;43.08;24.35;;;;;;;-1.23;100.00;102256.25;4954420;28;20065;-78
2021/12/18 02:36:05;;;;;;;44.65;26.73;;;;;;;-1.32;100.00;102264.41;4954173;28;20047;-77
2021/12/18 02:43:51;;;;;;;45.25;26.10;;;;;;;-1.41;100.00;102269.72;4954246;28;20047;-77
2021/12/18 02:46:20;;;;;;;50.33;25.30;;;;;;;-1.48;100.00;102274.03;4952668;28;20062;-78
2021/12/18 02:48:51;;;;;;;48.47;25.45;;;;;;;-1.37;100.00;102276.47;4954272;28;20047;-78
2021/12/18 02:51:20;;;;;;;51.30;26.10;;;;;;;-1.45;100.00;102271.06;4954166;28;20047;-78
2021/12/18 02:53:51;;;;;;;60.75;26.92;;;;;;;-1.52;100.00;102259.28;4954010;28;20051;-78
2021/12/18 02:56:23;;;;;;;56.88;25.58;;;;;;;-1.59;100.00;102260.88;4954198;28;20048;-78
2021/12/18 02:58:54;;;;;;;62.17;26.58;;;;;;;-1.55;100.00;102265.78;4953990;28;20062;-77
2021/12/18 03:01:24;;;;;;;49.35;25.05;;;;;;;-1.49;100.00;102272.38;4953965;28;20051;-78
2021/12/18 03:03:55;;;;;;;50.38;25.65;;;;;;;-1.44;100.00;102270.06;4953947;28;20080;-77
2021/12/18 03:06:41;;;;;;;52.03;25.55;;;;;;;-1.36;100.00;102278.16;4953616;28;20048;-77
2021/12/18 03:25:23;;;;;;;60.33;25.85;;;;;;;-1.50;100.00;102322.53;4953828;28;20043;-78
2021/12/18 03:27:52;;;;;;;71.60;28.23;;;;;;;-1.50;100.00;102319.03;4953664;28;20051;-78
2021/12/18 03:30:21;;;;;;;57.20;28.38;;;;;;;-1.41;100.00;102320.75;4952458;28;20047;-77
2021/12/18 03:32:49;;;;;;;66.55;27.27;;;;;;;-1.43;100.00;102330.81;4953596;28;20051;-77
2021/12/18 03:35:18;;;;;;;66.70;28.63;;;;;;;-1.39;100.00;102317.91;4952598;28;20047;-78
2021/12/18 03:37:46;;;;;;;69.63;27.73;;;;;;;-1.43;100.00;102324.63;4968375;28;20047;-78
2021/12/18 03:40:20;;;;;;;74.97;27.55;;;;;;;-1.49;100.00;102332.31;4953663;28;20509;-77
2021/12/18 03:42:48;;;;;;;69.22;29.50;;;;;;;-1.25;100.00;102340.69;4953484;28;20044;-77
2021/12/18 03:45:18;;;;;;;58.13;27.63;;;;;;;-1.25;100.00;102351.44;4953719;28;20055;-78
2021/12/18 03:47:50;;;;;;;55.83;27.45;;;;;;;-1.22;100.00;102348.44;4953543;28;20055;-77
2021/12/18 03:50:20;;;;;;;80.63;29.33;;;;;;;-1.26;100.00;102357.81;4953630;28;20055;-77
2021/12/18 03:52:49;;;;;;;65.75;28.38;;;;;;;-1.27;100.00;102356.94;4952148;28;20071;-77
2021/12/18 03:55:17;;;;;;;63.08;29.27;;;;;;;-1.26;100.00;102355.13;4953361;28;20047;-78
2021/12/18 03:57:45;;;;;;;64.75;28.73;;;;;;;-1.12;100.00;102367.97;4953489;28;20047;-77
2021/12/18 04:00:16;;;;;;;57.55;29.10;;;;;;;-1.15;100.00;102360.25;4953389;28;20054;-78
2021/12/18 04:02:44;;;;;;;64.95;28.30;;;;;;;-1.32;100.00;102358.44;4953494;28;20055;-77
2021/12/18 04:05:13;;;;;;;66.70;27.83;;;;;;;-1.27;100.00;102367.69;4953430;28;20051;-78
2021/12/18 04:07:44;;;;;;;69.45;27.80;;;;;;;-1.31;100.00;102358.28;4952055;28;20047;-77
2021/12/18 04:10:15;;;;;;;60.42;29.48;;;;;;;-1.42;100.00;102343.25;4953338;28;20046;-77
2021/12/18 04:12:43;;;;;;;69.45;29.42;;;;;;;-1.45;100.00;102343.56;4953334;28;20596;-78
2021/12/18 04:15:11;;;;;;;66.32;27.42;;;;;;;-1.42;100.00;102351.31;4953442;28;20127;-78
2021/12/18 04:17:39;;;;;;;60.85;29.75;;;;;;;-1.43;100.00;102357.69;4954701;28;20498;-78
2021/12/18 04:20:08;;;;;;;61.38;29.88;;;;;;;-1.32;100.00;102345.00;4956674;28;20047;-78
2021/12/18 04:22:36;;;;;;;53.40;28.33;;;;;;;-1.31;100.00;102349.38;4956521;28;20051;-78
2021/12/18 04:25:05;;;;;;;52.88;26.98;;;;;;;-1.29;100.00;102361.66;4955551;28;20051;-78
2021/12/18 04:27:33;;;;;;;50.88;27.80;;;;;;;-1.20;100.00;102375.97;4955237;28;20063;-78
2021/12/18 04:30:02;;;;;;;57.17;29.63;;;;;;;-1.24;100.00;102382.66;4956526;28;20070;-78
2021/12/18 04:32:30;;;;;;;67.85;29.92;;;;;;;-0.95;100.00;102365.41;4956510;28;20051;-78
2021/12/18 04:34:58;;;;;;;52.67;28.50;;;;;;;-1.15;100.00;102378.19;4943352;29;20043;-78
2021/12/18 04:37:26;;;;;;;53.20;27.48;;;;;;;-1.19;100.00;102385.72;4956466;28;20509;-78
2021/12/18 04:39:55;;;;;;;57.80;28.98;;;;;;;-0.98;100.00;102392.59;4956286;28;20043;-78
2021/12/18 04:42:23;;;;;;;57.20;27.88;;;;;;;-0.79;100.00;102382.63;4956437;28;20055;-79
2021/12/18 04:44:51;;;;;;;54.75;30.45;;;;;;;-0.98;100.00;102398.81;4956022;28;20051;-78
2021/12/18 04:47:19;;;;;;;55.78;28.65;;;;;;;-1.04;100.00;102387.88;4956387;28;20059;-78
2021/12/18 04:49:47;;;;;;;56.63;27.15;;;;;;;-0.96;100.00;102393.28;4956046;28;20051;-78
2021/12/18 04:52:15;;;;;;;52.10;27.48;;;;;;;-1.06;100.00;102400.59;4956192;28;20051;-78
2021/12/18 04:54:44;;;;;;;44.70;24.88;;;;;;;-1.08;100.00;102406.13;4956251;28;20054;-77
2021/12/18 04:57:13;;;;;;;50.28;26.95;;;;;;;-0.97;100.00;102396.97;4955943;28;20048;-78
2021/12/18 04:59:44;;;;;;;54.13;28.02;;;;;;;-0.69;100.00;102404.84;4954900;28;20402;-77
2021/12/18 05:02:15;;;;;;;54.85;28.02;;;;;;;-0.77;100.00;102410.19;4955739;28;20062;-77
2021/12/18 05:04:43;;;;;;;64.43;28.00;;;;;;;-0.84;100.00;102404.59;4956042;28;20055;-77
2021/12/18 05:07:11;;;;;;;52.95;26.05;;;;;;;-1.15;100.00;102400.53;4955722;28;20043;-77
2021/12/18 05:09:40;;;;;;;47.38;25.35;;;;;;;-0.82;100.00;102408.81;4955923;28;20047;-77
2021/12/18 05:12:12;;;;;;;56.08;27.85;;;;;;;-0.93;100.00;102411.75;4955638;28;20054;-77
2021/12/18 05:14:40;;;;;;;55.88;26.38;;;;;;;-0.93;100.00;102408.25;4955858;28;20494;-77
2021/12/18 05:17:08;;;;;;;57.42;27.10;;;;;;;-1.04;100.00;102417.44;4955798;28;20529;-77
2021/12/18 05:19:36;;;;;;;54.75;28.60;;;;;;;-0.86;100.00;102423.59;4955522;28;20532;-77
2021/12/18 05:22:05;;;;;;;60.33;29.77;;;;;;;-0.90;100.00;102422.22;4954572;28;20047;-77
2021/12/18 05:24:33;;;;;;;65.70;27.40;;;;;;;-0.89;100.00;102431.13;4954239;28;20044;-77
2021/12/18 05:27:02;;;;;;;58.65;26.52;;;;;;;-0.98;100.00;102430.22;4955603;28;20514;-77
2021/12/18 05:29:30;;;;;;;61.88;25.73;;;;;;;-1.17;100.00;102429.41;4954903;28;20501;-78
2021/12/18 05:31:58;;;;;;;56.10;28.05;;;;;;;-1.12;100.00;102439.69;4955400;28;20055;-77
2021/12/18 05:34:33;;;;;;;55.60;25.80;;;;;;;-1.22;100.00;102445.16;4955293;28;20120;-77
2021/12/18 05:37:15;;;;;;;60.75;26.98;;;;;;;-1.12;100.00;102429.78;4955127;28;20039;-77
2021/12/18 05:39:44;;;;;;;51.28;26.08;;;;;;;-1.15;100.00;102446.22;4954258;28;20054;-77
2021/12/18 05:42:12;;;;;;;63.22;27.00;;;;;;;-1.24;100.00;102452.50;4955152;28;20054;-77
2021/12/18 05:44:41;;;;;;;54.45;26.25;;;;;;;-1.32;100.00;102449.75;4954825;28;20043;-76
2021/12/18 05:47:09;;;;;;;48.90;25.13;;;;;;;-1.38;100.00;102449.38;4955240;28;20047;-77
2021/12/18 05:49:38;;;;;;;50.45;25.48;;;;;;;-1.40;100.00;102453.22;4953640;28;20055;-77
2021/12/18 05:52:07;;;;;;;54.28;25.10;;;;;;;-1.31;100.00;102462.19;4954970;28;20050;-77
2021/12/18 05:54:36;;;;;;;40.22;22.88;;;;;;;-1.41;100.00;102471.16;4949409;28;20047;-77
2021/12/18 05:57:10;;;;;;;54.30;25.08;;;;;;;-1.57;100.00;102465.66;4954957;28;20058;-76
2021/12/18 05:59:38;;;;;;;51.55;26.15;;;;;;;-1.67;100.00;102460.34;4955008;28;20064;-77
2021/12/18 06:02:06;;;;;;;44.90;24.92;;;;;;;-1.82;100.00;102476.94;4954427;28;20051;-76
2021/12/18 06:04:38;;;;;;;50.70;24.83;;;;;;;-1.66;100.00;102484.34;4954644;28;20062;-77
2021/12/18 06:07:08;;;;;;;45.85;25.05;;;;;;;-1.56;100.00;102491.50;4954088;28;20410;-77
2021/12/18 06:09:36;;;;;;;47.30;24.27;;;;;;;-1.67;100.00;102500.63;4953613;28;20054;-77
2021/12/18 06:12:05;;;;;;;51.38;24.45;;;;;;;-2.01;100.00;102504.72;4953616;28;20054;-77
2021/12/18 06:14:33;;;;;;;51.70;24.02;;;;;;;-2.12;100.00;102487.00;4954589;28;20047;-78
2021/12/18 06:17:01;;;;;;;45.47;22.88;;;;;;;-2.18;100.00;102498.31;4954607;28;20116;-77
2021/12/18 06:19:29;;;;;;;44.92;23.02;;;;;;;-2.16;100.00;102491.81;4954581;28;20678;-77
2021/12/18 06:21:57;;;;;;;40.78;22.77;;;;;;;-2.11;100.00;102495.91;4954640;28;20058;-78
2021/12/18 06:24:26;;;;;;;50.35;25.45;;;;;;;-1.99;100.00;102501.91;4954424;28;20047;-77
2021/12/18 06:26:55;;;;;;;47.47;24.75;;;;;;;-2.11;100.00;102498.56;4954695;28;20410;-76
2021/12/18 06:29:23;;;;;;;45.50;24.17;;;;;;;-2.14;100.00;102499.72;4955117;28;20051;-77
2021/12/18 06:31:51;;;;;;;43.55;22.70;;;;;;;-2.31;100.00;102520.09;4954403;28;20497;-77
2021/12/18 06:34:19;;;;;;;41.28;22.40;;;;;;;-2.46;100.00;102509.84;4954382;28;20043;-77
2021/12/18 06:36:48;;;;;;;44.10;24.23;;;;;;;-2.43;100.00;102514.91;4962846;28;20035;-77
2021/12/18 06:39:16;;;;;;;45.70;24.02;;;;;;;-2.48;100.00;102519.88;4954052;28;20039;-77
2021/12/18 06:41:44;;;;;;;47.60;25.90;;;;;;;-2.30;100.00;102527.13;4953591;28;20402;-77
2021/12/18 06:44:12;;;;;;;44.13;24.23;;;;;;;-2.38;100.00;102529.72;4954054;28;20047;-78
2021/12/18 06:46:40;;;;;;;38.13;21.42;;;;;;;-2.43;100.00;102528.31;4952674;28;20051;-77
2021/12/18 06:49:10;;;;;;;44.50;22.55;;;;;;;-2.45;100.00;102530.28;4952703;28;20055;-79
2021/12/18 06:51:38;;;;;;;39.63;23.20;;;;;;;-2.47;100.00;102531.44;4953932;28;20505;-77
2021/12/18 06:54:06;;;;;;;41.58;22.30;;;;;;;-2.41;100.00;102532.69;4953874;28;20044;-79
2021/12/18 06:56:34;;;;;;;42.30;22.92;;;;;;;-2.30;100.00;102549.44;4952551;28;20047;-78
2021/12/18 06:59:02;;;;;;;38.33;22.80;;;;;;;-2.40;100.00;102547.78;4951834;28;20055;-79
2021/12/18 07:01:30;;;;;;;44.25;24.30;;;;;;;-2.14;100.00;102547.16;4953754;28;20055;-78
2021/12/18 07:03:59;;;;;;;41.38;22.92;;;;;;;-1.94;100.00;102566.72;4953281;28;20039;-79
2021/12/18 07:06:28;;;;;;;44.45;23.00;;;;;;;-1.95;100.00;102559.66;4953985;28;20043;-79
2021/12/18 07:08:56;;;;;;;42.72;24.00;;;;;;;-1.87;100.00;102561.59;4953497;28;20059;-78
2021/12/18 07:11:24;;;;;;;42.25;23.05;;;;;;;-1.81;100.00;102569.91;4953396;28;21467;-77
2021/12/18 07:13:52;;;;;;;47.60;25.25;;;;;;;-1.65;100.00;102573.78;4952234;28;20054;-77
2021/12/18 07:16:22;;;;;;;49.08;24.60;;;;;;;-1.68;100.00;102571.41;4953873;28;20115;-78
2021/12/18 07:18:51;;;;;;;41.03;22.85;;;;;;;-1.51;100.00;102569.78;4964031;28;20043;-79
2021/12/18 07:21:22;;;;;;;39.80;23.67;;;;;;;-1.50;100.00;102572.28;4940355;28;20052;-79
2021/12/18 07:23:50;;;;;;;37.80;21.80;;;;;;;-1.40;100.00;102560.66;4951790;28;20055;-78
2021/12/18 07:26:19;;;;;;;41.58;22.90;;;;;;;-1.26;100.00;102570.03;4953657;28;20050;-79
2021/12/18 07:28:47;;;;;;;43.53;23.08;;;;;;;-1.42;100.00;102560.78;4949660;28;20051;-77
2021/12/18 07:31:15;;;;;;;39.28;21.15;;;;;;;-1.22;100.00;102574.13;4952871;28;20490;-79
2021/12/18 07:33:44;;;;;;;35.03;22.20;;;;;;;-0.99;100.00;102579.03;4952209;28;20402;-78
2021/12/18 07:36:14;;;;;;;40.13;22.23;;;;;;;-0.64;100.00;102579.19;4950521;28;20051;-92
2021/12/18 07:38:43;;;;;;;38.83;21.67;;;;;;;-0.53;100.00;102586.16;4952464;28;20066;-91
2021/12/18 07:41:12;;;;;;;34.40;21.92;;;;;;;-0.10;100.00;102580.94;4934955;28;20039;-92
2021/12/18 07:43:40;;;;;;;35.70;21.50;;;;;;;0.05;100.00;102578.47;4934543;29;20048;-92
2021/12/18 07:46:08;;;;;;;32.63;19.83;;;;;;;0.06;100.00;102580.16;4934079;28;20055;-92
2021/12/18 07:48:37;;;;;;;35.22;20.42;;;;;;;-0.13;100.00;102584.78;4938909;28;20044;-93
2021/12/18 07:51:06;;;;;;;32.53;20.55;;;;;;;-0.11;100.00;102582.75;4935138;29;20043;-94
2021/12/18 07:53:34;;;;;;;34.25;20.13;;;;;;;-0.15;100.00;102587.63;4939720;28;20043;-94
2021/12/18 07:56:03;;;;;;;30.73;19.23;;;;;;;-0.06;100.00;102580.44;4932621;28;20158;-94
2021/12/18 07:58:32;;;;;;;32.90;19.77;;;;;;;0.13;100.00;102591.97;4937072;28;20047;-93
2021/12/18 08:01:00;;;;;;;32.60;19.80;;;;;;;0.17;100.00;102579.91;4942873;28;20057;-93
2021/12/18 08:03:28;;;;;;;33.60;19.65;;;;;;;0.24;100.00;102586.31;4929231;29;20047;-93
2021/12/18 08:05:56;;;;;;;29.95;18.40;;;;;;;0.32;100.00;102581.97;4944681;29;20046;-93
2021/12/18 08:08:25;;;;;;;28.75;17.70;;;;;;;0.37;100.00;102579.63;4927185;29;20039;-93
2021/12/18 08:10:53;;;;;;;110.50;44.90;;;;;;;0.43;100.00;102570.91;4939704;29;20082;-93
2021/12/18 08:13:22;;;;;;;177.40;57.97;;;;;;;0.72;100.00;102584.97;4937664;29;20082;-89
2021/12/18 08:15:50;;;;;;;223.80;77.78;;;;;;;0.82;100.00;102582.97;4959373;28;20047;-93
2021/12/18 08:18:18;;;;;;;116.50;60.05;;;;;;;0.86;100.00;102580.78;4939433;29;20048;-93
2021/12/18 08:20:47;;;;;;;64.53;39.08;;;;;;;0.98;100.00;102576.78;4939652;29;20055;-91
2021/12/18 08:23:15;;;;;;;50.38;31.45;;;;;;;1.16;100.00;102579.34;4939523;29;20485;-92
2021/12/18 08:25:43;;;;;;;49.72;25.40;;;;;;;1.31;100.00;102571.41;4952594;28;20529;-92
2021/12/18 08:28:11;;;;;;;41.95;29.02;;;;;;;1.35;100.00;102571.91;4940278;29;20074;-93
2021/12/18 08:30:40;;;;;;;41.60;27.98;;;;;;;1.40;100.00;102576.81;4956622;28;20047;-91
2021/12/18 08:33:08;;;;;;;33.30;20.38;;;;;;;1.53;100.00;102577.16;4940161;29;20410;-92
2021/12/18 08:35:37;;;;;;;32.78;20.40;;;;;;;1.69;100.00;102594.31;4939799;29;20054;-91
2021/12/18 08:38:05;;;;;;;34.25;21.02;;;;;;;1.94;100.00;102589.75;4955222;28;20054;-92
2021/12/18 08:40:35;;;;;;;29.75;17.58;;;;;;;2.06;100.00;102592.06;4940417;28;20390;-92
2021/12/18 08:43:04;;;;;;;30.38;16.58;;;;;;;2.15;100.00;102597.28;4955388;28;20482;-71
2021/12/18 08:45:32;;;;;;;28.10;16.08;;;;;;;2.30;100.00;102601.13;4956154;28;20063;-85
2021/12/18 08:48:00;;;;;;;24.35;16.38;;;;;;;2.40;100.00;102597.19;4956345;28;20043;-85
2021/12/18 08:50:28;;;;;;;24.92;16.08;;;;;;;2.52;100.00;102599.50;4965937;28;20054;-84
2021/12/18 08:52:56;;;;;;;28.20;17.75;;;;;;;2.69;100.00;102598.41;4958265;28;20039;-85
2021/12/18 08:55:24;;;;;;;28.52;16.90;;;;;;;2.79;100.00;102608.19;4957299;28;20066;-84
2021/12/18 08:57:53;;;;;;;27.90;16.90;;;;;;;2.89;100.00;102613.34;4975594;28;20042;-84
2021/12/18 09:00:23;;;;;;;28.17;16.48;;;;;;;2.97;100.00;102617.88;4973098;28;20047;-84
2021/12/18 09:02:54;;;;;;;24.58;16.27;;;;;;;3.08;100.00;102617.47;4974691;28;20038;-84
2021/12/18 09:05:24;;;;;;;28.50;18.23;;;;;;;3.41;100.00;102635.34;4989780;28;20058;-84
2021/12/18 09:07:52;;;;;;;39.30;22.65;;;;;;;3.67;100.00;102632.22;4962980;28;20047;-84
2021/12/18 09:10:21;;;;;;;38.08;19.75;;;;;;;3.71;100.00;102627.31;4954915;29;20428;-76
2021/12/18 09:12:49;;;;;;;109.45;46.25;;;;;;;4.11;100.00;102622.50;4954548;29;20056;-76
2021/12/18 09:15:17;;;;;;;28.27;17.88;;;;;;;4.30;98.73;102640.09;4970248;28;20058;-76
2021/12/18 09:17:45;;;;;;;55.95;27.95;;;;;;;4.24;99.76;102643.53;4951575;29;20052;-76
2021/12/18 09:20:14;;;;;;;32.40;18.98;;;;;;;4.47;99.64;102650.75;4969991;28;20058;-76
2021/12/18 09:22:42;;;;;;;38.28;22.27;;;;;;;4.42;98.55;102655.88;4955359;29;20181;-76
2021/12/18 09:25:10;;;;;;;46.28;25.90;;;;;;;4.29;98.42;102649.25;4955384;29;20533;-76
2021/12/18 09:27:39;;;;;;;42.33;23.58;;;;;;;4.38;98.73;102668.97;4955369;29;20556;-77
2021/12/18 09:30:11;;;;;;;34.20;21.98;;;;;;;4.32;99.17;102663.44;4954068;29;20059;-76
2021/12/18 09:32:40;;;;;;;45.28;31.02;;;;;;;4.25;98.33;102666.91;4954412;28;20116;-76
2021/12/18 09:35:09;;;;;;;40.50;23.92;;;;;;;4.17;98.35;102667.00;4944935;28;20055;-76
2021/12/18 09:37:38;;;;;;;35.88;23.55;;;;;;;3.93;98.47;102659.94;4954635;28;20039;-76
2021/12/18 09:40:10;;;;;;;34.75;21.25;;;;;;;4.15;97.90;102669.03;4965964;28;20050;-76
2021/12/18 09:42:38;;;;;;;33.30;20.90;;;;;;;4.00;98.22;102663.59;4953876;29;20055;-76
2021/12/18 09:45:07;;;;;;;34.65;21.80;;;;;;;4.07;97.56;102661.00;4954763;28;20054;-75
2021/12/18 09:47:37;;;;;;;33.70;20.70;;;;;;;3.93;98.25;102666.22;4954978;29;20043;-76
2021/12/18 09:50:06;;;;;;;33.47;20.70;;;;;;;3.75;98.23;102656.56;4953192;29;20508;-77
2021/12/18 09:52:35;;;;;;;38.85;22.23;;;;;;;4.00;97.94;102659.03;4955113;29;20050;-77
2021/12/18 09:55:06;;;;;;;44.63;23.70;;;;;;;4.29;96.24;102654.66;4954588;28;20047;-79
2021/12/18 09:57:35;;;;;;;31.75;20.85;;;;;;;4.35;95.96;102653.06;4941910;28;20047;-77
2021/12/18 10:00:10;;;;;;;31.92;19.63;;;;;;;4.18;95.87;102655.13;4955145;28;20050;-78
2021/12/18 10:02:38;;;;;;;28.98;19.00;;;;;;;4.30;95.26;102650.06;4955096;29;20062;-78
2021/12/18 10:05:19;;;;;;;26.60;18.35;;;;;;;4.62;93.06;102642.59;4955402;29;20063;-77
2021/12/18 10:08:12;;;;;;;27.73;18.27;;;;;;;4.76;91.70;102654.47;4955107;28;20043;-77
2021/12/18 10:11:05;;;;;;;28.23;18.10;;;;;;;4.49;92.23;102648.69;4952813;28;20487;-77
2021/12/18 10:13:53;;;;;;;39.38;22.60;;;;;;;4.60;91.81;102646.53;4954081;28;20050;-77
2021/12/18 10:16:26;;;;;;;31.88;18.63;;;;;;;4.83;90.37;102644.53;4953137;28;20047;-78
2021/12/18 10:18:57;;;;;;;30.85;18.42;;;;;;;5.00;89.45;102652.44;4950948;28;20044;-77
2021/12/18 10:21:28;;;;;;;30.85;21.23;;;;;;;4.92;90.12;102661.53;4955967;28;20039;-77
2021/12/18 10:24:14;;;;;;;35.70;21.65;;;;;;;5.13;90.11;102648.19;4955293;28;20047;-77
2021/12/18 10:26:44;;;;;;;37.40;22.02;;;;;;;5.25;89.02;102646.66;4967560;28;20055;-78
2021/12/18 10:29:30;;;;;;;29.83;17.85;;;;;;;5.24;87.87;102636.84;4955291;28;20039;-78
2021/12/18 10:32:09;;;;;;;28.10;18.00;;;;;;;5.30;89.30;102627.91;4956971;28;20417;-78
2021/12/18 10:34:40;;;;;;;31.23;19.75;;;;;;;5.19;89.05;102623.81;4954393;28;20521;-78
2021/12/18 10:37:20;;;;;;;29.45;19.60;;;;;;;5.22;89.74;102633.47;4955208;28;20062;-79
2021/12/18 10:39:51;;;;;;;33.95;19.98;;;;;;;5.41;89.76;102629.28;4949220;28;20054;-77
2021/12/18 10:42:34;;;;;;;31.98;19.50;;;;;;;5.30;90.54;102627.91;4948762;28;20434;-77
2021/12/18 10:45:05;;;;;;;34.28;20.88;;;;;;;5.33;90.71;102622.09;4950424;28;20051;-77
2021/12/18 10:47:50;;;;;;;31.80;19.85;;;;;;;5.36;90.41;102619.00;4951675;28;20060;-78
2021/12/18 10:50:41;;;;;;;36.10;20.67;;;;;;;5.16;92.03;102623.38;4953540;28;20438;-78
2021/12/18 10:53:18;;;;;;;30.40;18.63;;;;;;;5.25;92.00;102630.38;4951307;29;20375;-77
2021/12/18 10:56:00;;;;;;;29.05;19.08;;;;;;;5.30;90.86;102622.50;4950689;28;20450;-79
2021/12/18 10:58:37;;;;;;;36.80;21.27;;;;;;;5.32;91.39;102620.41;4954613;28;20051;-77
2021/12/18 11:01:13;;;;;;;36.78;21.15;;;;;;;5.44;90.88;102622.59;4951185;28;20581;-78
2021/12/18 11:03:46;;;;;;;31.73;20.05;;;;;;;5.44;91.25;102622.59;4952085;28;20494;-78
2021/12/18 11:06:31;;;;;;;32.05;20.13;;;;;;;5.61;91.01;102618.59;4951629;28;20047;-78
2021/12/18 11:09:06;;;;;;;27.10;18.13;;;;;;;5.32;92.30;102620.41;4952861;28;20074;-78
2021/12/18 11:14:23;;;;;;;28.17;19.05;;;;;;;5.68;90.05;102606.94;4953978;28;20497;-78
2021/12/18 11:16:59;;;;;;;29.45;19.20;;;;;;;5.82;89.88;102603.25;4953461;28;20039;-77
2021/12/18 11:19:29;;;;;;;27.20;18.42;;;;;;;5.83;89.42;102601.41;4965728;28;20054;-79
2021/12/18 11:22:03;;;;;;;28.60;19.45;;;;;;;5.71;90.60;102601.94;4950611;28;20062;-80
2021/12/18 11:24:47;;;;;;;26.77;18.48;;;;;;;5.62;91.56;102603.97;4951410;28;20043;-79
2021/12/18 11:27:20;;;;;;;26.92;17.60;;;;;;;5.79;90.00;102592.81;4957983;28;20074;-80
2021/12/18 11:29:55;;;;;;;34.47;20.40;;;;;;;5.86;91.86;102598.31;4962083;28;20054;-80
2021/12/18 11:32:27;;;;;;;28.33;19.77;;;;;;;6.07;89.78;102604.72;4959820;28;20051;-80
2021/12/18 11:34:57;;;;;;;28.80;18.60;;;;;;;5.98;90.31;102590.44;4962054;28;20055;-81
2021/12/18 11:37:27;;;;;;;29.55;18.77;;;;;;;5.98;91.09;102591.28;4958207;28;20055;-79
2021/12/18 11:39:58;;;;;;;26.77;18.45;;;;;;;6.13;89.98;102583.03;4961925;28;20043;-79
2021/12/18 11:42:32;;;;;;;27.95;18.90;;;;;;;6.17;89.56;102587.00;4959520;28;20062;-78
2021/12/18 11:45:04;;;;;;;27.73;19.17;;;;;;;6.18;90.85;102566.13;4959979;28;20053;-77
2021/12/18 11:47:37;;;;;;;28.40;19.58;;;;;;;5.99;92.18;102560.34;4958722;28;20474;-78
2021/12/18 11:50:26;;;;;;;27.23;19.25;;;;;;;6.20;89.61;102568.63;4955870;28;20195;-77
2021/12/18 11:53:04;;;;;;;28.98;19.33;;;;;;;6.33;88.10;102571.41;4954966;28;20043;-77
2021/12/18 11:55:49;;;;;;;29.65;19.05;;;;;;;6.37;88.95;102561.81;4959524;28;20686;-79
2021/12/18 11:58:24;;;;;;;33.15;20.08;;;;;;;6.55;89.65;102565.88;4956139;28;20050;-78
2021/12/18 12:01:00;;;;;;;27.23;19.33;;;;;;;6.63;87.53;102564.81;4957260;28;20047;-78
2021/12/18 12:03:40;;;;;;;29.70;19.52;;;;;;;6.64;87.83;102556.47;4954412;28;20062;-78
2021/12/18 12:06:24;;;;;;;28.13;19.05;;;;;;;6.87;87.20;102544.38;4956181;28;20051;-78
2021/12/18 12:09:14;;;;;;;29.27;20.48;;;;;;;6.84;87.20;102551.06;4956266;28;20054;-80
2021/12/18 12:11:55;;;;;;;31.20;20.42;;;;;;;6.89;87.25;102541.47;4962429;28;20051;-79
2021/12/18 12:14:34;;;;;;;33.50;20.80;;;;;;;6.89;86.84;102531.41;4959595;28;20046;-80